sensor_id;sensor_type;location;lat;lon;timestamp;pressure;altitude;pressure_sealevel;temperature;humidity
65175;BME280;51761;42.126;24.752;2023-02-02T00:01:45;99701.28;;;5.65;49.78
65175;BME280;51761;42.126;24.752;2023-02-02T00:04:37;99709.22;;;5.67;50.36
65175;BME280;51761;42.126;24.752;2023-02-02T00:07:03;99706.50;;;5.70;50.45
65175;BME280;51761;42.126;24.752;2023-02-02T00:09:32;99699.31;;;5.62;49.91
65175;BME280;51761;42.126;24.752;2023-02-02T00:11:58;99721.91;;;5.68;50.29
65175;BME280;51761;42.126;24.752;2023-02-02T00:14:24;99709.16;;;5.56;50.82
65175;BME280;51761;42.126;24.752;2023-02-02T00:16:55;99715.19;;;5.72;49.71
65175;BME280;51761;42.126;24.752;2023-02-02T00:19:23;99699.34;;;5.69;49.79
65175;BME280;51761;42.126;24.752;2023-02-02T00:21:51;99700.22;;;5.80;48.65
65175;BME280;51761;42.126;24.752;2023-02-02T00:24:17;99715.34;;;6.00;48.48
65175;BME280;51761;42.126;24.752;2023-02-02T00:26:46;99718.56;;;6.09;48.19
65175;BME280;51761;42.126;24.752;2023-02-02T00:29:30;99720.59;;;6.26;47.36
65175;BME280;51761;42.126;24.752;2023-02-02T00:31:56;99728.94;;;6.36;47.82
65175;BME280;51761;42.126;24.752;2023-02-02T00:34:22;99706.75;;;6.36;47.46
65175;BME280;51761;42.126;24.752;2023-02-02T00:36:49;99720.25;;;6.55;47.46
65175;BME280;51761;42.126;24.752;2023-02-02T00:39:17;99713.13;;;6.54;47.48
65175;BME280;51761;42.126;24.752;2023-02-02T00:41:43;99718.69;;;6.61;47.63
65175;BME280;51761;42.126;24.752;2023-02-02T00:44:09;99699.22;;;6.51;47.69
65175;BME280;51761;42.126;24.752;2023-02-02T00:46:53;99703.59;;;6.52;48.11
65175;BME280;51761;42.126;24.752;2023-02-02T00:49:18;99719.47;;;6.55;48.34
65175;BME280;51761;42.126;24.752;2023-02-02T00:51:44;99702.84;;;6.55;48.14
65175;BME280;51761;42.126;24.752;2023-02-02T00:54:09;99715.13;;;6.54;48.79
65175;BME280;51761;42.126;24.752;2023-02-02T00:56:35;99710.75;;;6.53;48.87
65175;BME280;51761;42.126;24.752;2023-02-02T00:59:01;99710.75;;;6.49;48.76
65175;BME280;51761;42.126;24.752;2023-02-02T01:01:26;99689.28;;;6.25;49.13
65175;BME280;51761;42.126;24.752;2023-02-02T01:03:52;99717.84;;;6.36;49.22
65175;BME280;51761;42.126;24.752;2023-02-02T01:06:18;99719.44;;;6.34;49.19
65175;BME280;51761;42.126;24.752;2023-02-02T01:08:43;99707.91;;;6.25;48.99
65175;BME280;51761;42.126;24.752;2023-02-02T01:11:09;99729.75;;;6.40;48.90
65175;BME280;51761;42.126;24.752;2023-02-02T01:13:35;99728.53;;;6.34;49.00
65175;BME280;51761;42.126;24.752;2023-02-02T01:16:02;99722.19;;;6.30;49.06
65175;BME280;51761;42.126;24.752;2023-02-02T01:18:28;99719.41;;;6.30;49.30
65175;BME280;51761;42.126;24.752;2023-02-02T01:21:01;99732.88;;;6.28;49.41
65175;BME280;51761;42.126;24.752;2023-02-02T01:23:27;99703.50;;;6.03;49.74
65175;BME280;51761;42.126;24.752;2023-02-02T01:25:57;99699.56;;;6.18;49.18
65175;BME280;51761;42.126;24.752;2023-02-02T01:28:23;99735.28;;;6.30;49.28
65175;BME280;51761;42.126;24.752;2023-02-02T01:30:50;99736.03;;;6.30;49.73
65175;BME280;51761;42.126;24.752;2023-02-02T01:33:16;99734.06;;;6.24;50.00
65175;BME280;51761;42.126;24.752;2023-02-02T01:38:12;99742.00;;;6.29;50.08
65175;BME280;51761;42.126;24.752;2023-02-02T01:40:46;99731.69;;;6.36;49.51
65175;BME280;51761;42.126;24.752;2023-02-02T01:45:46;99710.25;;;6.13;49.80
65175;BME280;51761;42.126;24.752;2023-02-02T01:48:12;99731.69;;;6.26;49.68
65175;BME280;51761;42.126;24.752;2023-02-02T01:50:38;99709.06;;;6.17;49.57
65175;BME280;51761;42.126;24.752;2023-02-02T01:53:04;99729.69;;;6.26;48.99
65175;BME280;51761;42.126;24.752;2023-02-02T01:55:32;99729.72;;;6.37;48.72
65175;BME280;51761;42.126;24.752;2023-02-02T01:58:04;99711.50;;;6.36;48.22
65175;BME280;51761;42.126;24.752;2023-02-02T02:00:32;99721.03;;;6.49;48.31
65175;BME280;51761;42.126;24.752;2023-02-02T02:03:02;99715.47;;;6.49;48.06
65175;BME280;51761;42.126;24.752;2023-02-02T02:05:33;99728.19;;;6.57;48.26
65175;BME280;51761;42.126;24.752;2023-02-02T02:08:07;99729.41;;;6.56;48.46
65175;BME280;51761;42.126;24.752;2023-02-02T02:10:34;99734.53;;;6.50;48.89
65175;BME280;51761;42.126;24.752;2023-02-02T02:13:00;99733.72;;;6.50;49.06
65175;BME280;51761;42.126;24.752;2023-02-02T02:15:27;99710.31;;;6.37;48.90
65175;BME280;51761;42.126;24.752;2023-02-02T02:18:31;99731.34;;;6.48;49.40
65175;BME280;51761;42.126;24.752;2023-02-02T02:22:11;99727.38;;;6.46;49.37
65175;BME280;51761;42.126;24.752;2023-02-02T02:33:05;99724.53;;;6.22;50.51
65175;BME280;51761;42.126;24.752;2023-02-02T02:36:16;99719.00;;;6.25;50.36
65175;BME280;51761;42.126;24.752;2023-02-02T02:38:46;99717.41;;;6.21;50.29
65175;BME280;51761;42.126;24.752;2023-02-02T02:41:21;99709.09;;;6.21;50.54
65175;BME280;51761;42.126;24.752;2023-02-02T02:44:03;99701.91;;;6.02;50.99
65175;BME280;51761;42.126;24.752;2023-02-02T02:46:31;99716.59;;;6.13;50.94
65175;BME280;51761;42.126;24.752;2023-02-02T02:48:57;99716.19;;;6.11;50.64
65175;BME280;51761;42.126;24.752;2023-02-02T02:51:44;99711.84;;;6.17;50.57
65175;BME280;51761;42.126;24.752;2023-02-02T02:54:13;99712.94;;;5.95;51.08
65175;BME280;51761;42.126;24.752;2023-02-02T02:56:47;99713.38;;;5.97;50.90
65175;BME280;51761;42.126;24.752;2023-02-02T03:02:38;99695.16;;;5.96;51.30
65175;BME280;51761;42.126;24.752;2023-02-02T03:05:28;99704.22;;;5.93;50.85
65175;BME280;51761;42.126;24.752;2023-02-02T03:08:07;99701.84;;;5.92;50.98
65175;BME280;51761;42.126;24.752;2023-02-02T03:10:35;99703.03;;;5.91;50.86
65175;BME280;51761;42.126;24.752;2023-02-02T03:13:07;99697.91;;;5.93;50.80
65175;BME280;51761;42.126;24.752;2023-02-02T03:15:33;99704.28;;;6.00;50.15
65175;BME280;51761;42.126;24.752;2023-02-02T03:17:59;99705.84;;;6.05;50.13
65175;BME280;51761;42.126;24.752;2023-02-02T03:20:24;99700.72;;;6.03;49.80
65175;BME280;51761;42.126;24.752;2023-02-02T03:22:50;99694.81;;;6.12;49.86
65175;BME280;51761;42.126;24.752;2023-02-02T03:25:15;99702.72;;;6.20;49.37
65175;BME280;51761;42.126;24.752;2023-02-02T03:27:41;99699.59;;;6.28;49.00
65175;BME280;51761;42.126;24.752;2023-02-02T03:30:11;99700.44;;;6.39;48.94
65175;BME280;51761;42.126;24.752;2023-02-02T03:32:38;99700.41;;;6.36;48.96
65175;BME280;51761;42.126;24.752;2023-02-02T03:35:04;99698.06;;;6.41;48.76
65175;BME280;51761;42.126;24.752;2023-02-02T03:37:29;99690.13;;;6.50;48.71
65175;BME280;51761;42.126;24.752;2023-02-02T03:39:55;99690.91;;;6.51;49.05
65175;BME280;51761;42.126;24.752;2023-02-02T03:42:20;99673.47;;;6.40;48.64
65175;BME280;51761;42.126;24.752;2023-02-02T03:44:46;99686.16;;;6.48;48.50
65175;BME280;51761;42.126;24.752;2023-02-02T03:47:11;99678.25;;;6.53;48.43
65175;BME280;51761;42.126;24.752;2023-02-02T03:49:36;99676.25;;;6.50;48.34
65175;BME280;51761;42.126;24.752;2023-02-02T03:52:02;99665.94;;;6.51;48.30
65175;BME280;51761;42.126;24.752;2023-02-02T03:54:29;99665.19;;;6.54;48.41
65175;BME280;51761;42.126;24.752;2023-02-02T03:56:55;99691.75;;;6.62;48.62
65175;BME280;51761;42.126;24.752;2023-02-02T03:59:21;99678.22;;;6.50;48.52
65175;BME280;51761;42.126;24.752;2023-02-02T04:01:46;99693.31;;;6.63;48.66
65175;BME280;51761;42.126;24.752;2023-02-02T04:04:12;99688.16;;;6.61;48.60
65175;BME280;51761;42.126;24.752;2023-02-02T04:06:37;99696.88;;;6.67;48.45
65175;BME280;51761;42.126;24.752;2023-02-02T04:09:03;99686.19;;;6.62;48.66
65175;BME280;51761;42.126;24.752;2023-02-02T04:11:28;99685.78;;;6.56;48.94
65175;BME280;51761;42.126;24.752;2023-02-02T04:13:54;99686.16;;;6.58;49.07
65175;BME280;51761;42.126;24.752;2023-02-02T04:16:20;99669.13;;;6.42;49.39
65175;BME280;51761;42.126;24.752;2023-02-02T04:18:45;99669.50;;;6.37;49.36
65175;BME280;51761;42.126;24.752;2023-02-02T04:21:11;99671.50;;;6.40;49.60
65175;BME280;51761;42.126;24.752;2023-02-02T04:23:36;99689.31;;;6.43;49.88
65175;BME280;51761;42.126;24.752;2023-02-02T04:26:03;99690.50;;;6.28;49.98
65175;BME280;51761;42.126;24.752;2023-02-02T04:28:28;99697.25;;;6.41;50.26
65175;BME280;51761;42.126;24.752;2023-02-02T04:30:54;99698.81;;;6.28;50.26
65175;BME280;51761;42.126;24.752;2023-02-02T04:33:21;99702.38;;;6.28;50.42
65175;BME280;51761;42.126;24.752;2023-02-02T04:35:47;99710.69;;;6.22;50.50
65175;BME280;51761;42.126;24.752;2023-02-02T04:38:13;99713.47;;;6.25;50.67
65175;BME280;51761;42.126;24.752;2023-02-02T04:40:43;99705.91;;;6.19;50.63
65175;BME280;51761;42.126;24.752;2023-02-02T04:43:09;99719.38;;;6.17;51.16
65175;BME280;51761;42.126;24.752;2023-02-02T04:45:35;99694.78;;;6.01;50.96
65175;BME280;51761;42.126;24.752;2023-02-02T04:48:01;99699.13;;;6.06;50.50
65175;BME280;51761;42.126;24.752;2023-02-02T04:50:27;99718.56;;;6.13;50.45
65175;BME280;51761;42.126;24.752;2023-02-02T04:52:52;99717.38;;;6.10;50.79
65175;BME280;51761;42.126;24.752;2023-02-02T04:55:18;99721.34;;;6.13;50.72
65175;BME280;51761;42.126;24.752;2023-02-02T04:57:43;99720.91;;;6.04;50.39
65175;BME280;51761;42.126;24.752;2023-02-02T05:00:10;99722.91;;;6.03;50.63
65175;BME280;51761;42.126;24.752;2023-02-02T05:02:39;99730.00;;;5.97;50.60
65175;BME280;51761;42.126;24.752;2023-02-02T05:05:07;99736.34;;;6.05;50.42
65175;BME280;51761;42.126;24.752;2023-02-02T05:07:32;99733.13;;;5.92;50.70
65175;BME280;51761;42.126;24.752;2023-02-02T05:09:58;99716.13;;;5.94;50.58
65175;BME280;51761;42.126;24.752;2023-02-02T05:12:23;99720.09;;;5.96;50.27
65175;BME280;51761;42.126;24.752;2023-02-02T05:14:49;99742.31;;;6.03;50.25
65175;BME280;51761;42.126;24.752;2023-02-02T05:17:14;99727.19;;;5.90;50.92
65175;BME280;51761;42.126;24.752;2023-02-02T05:19:41;99717.28;;;5.86;50.64
65175;BME280;51761;42.126;24.752;2023-02-02T05:22:07;99745.41;;;5.95;50.76
65175;BME280;51761;42.126;24.752;2023-02-02T05:24:33;99753.34;;;5.93;50.74
65175;BME280;51761;42.126;24.752;2023-02-02T05:26:58;99747.34;;;5.87;51.17
65175;BME280;51761;42.126;24.752;2023-02-02T05:29:29;99750.16;;;5.91;51.13
65175;BME280;51761;42.126;24.752;2023-02-02T05:31:55;99742.22;;;5.89;50.95
65175;BME280;51761;42.126;24.752;2023-02-02T05:34:20;99750.53;;;5.89;50.65
65175;BME280;51761;42.126;24.752;2023-02-02T05:36:46;99763.63;;;5.89;50.85
65175;BME280;51761;42.126;24.752;2023-02-02T05:39:12;99751.75;;;5.92;50.27
65175;BME280;51761;42.126;24.752;2023-02-02T05:41:37;99760.91;;;5.99;50.12
65175;BME280;51761;42.126;24.752;2023-02-02T05:44:03;99765.66;;;6.02;50.55
65175;BME280;51761;42.126;24.752;2023-02-02T05:46:29;99759.28;;;5.95;50.63
65175;BME280;51761;42.126;24.752;2023-02-02T05:48:55;99770.03;;;6.03;50.38
65175;BME280;51761;42.126;24.752;2023-02-02T05:51:27;99770.03;;;6.10;50.26
65175;BME280;51761;42.126;24.752;2023-02-02T05:53:53;99768.47;;;6.16;50.04
65175;BME280;51761;42.126;24.752;2023-02-02T05:56:19;99768.50;;;6.20;50.32
65175;BME280;51761;42.126;24.752;2023-02-02T05:58:44;99771.66;;;6.18;50.00
65175;BME280;51761;42.126;24.752;2023-02-02T06:01:12;99778.41;;;6.21;50.01
65175;BME280;51761;42.126;24.752;2023-02-02T06:03:38;99734.81;;;6.21;49.46
65175;BME280;51761;42.126;24.752;2023-02-02T06:06:03;99759.13;;;6.80;48.53
65175;BME280;51761;42.126;24.752;2023-02-02T06:08:29;99761.47;;;7.79;46.10
65175;BME280;51761;42.126;24.752;2023-02-02T06:10:54;99766.53;;;8.94;43.28
65175;BME280;51761;42.126;24.752;2023-02-02T06:13:20;99767.41;;;9.75;41.60
65175;BME280;51761;42.126;24.752;2023-02-02T06:15:46;99753.66;;;10.62;39.65
65175;BME280;51761;42.126;24.752;2023-02-02T06:18:11;99771.50;;;11.70;38.44
65175;BME280;51761;42.126;24.752;2023-02-02T06:20:38;99777.56;;;12.30;36.99
65175;BME280;51761;42.126;24.752;2023-02-02T06:23:04;99782.47;;;12.81;36.60
65175;BME280;51761;42.126;24.752;2023-02-02T06:25:30;99789.03;;;12.74;35.56
65175;BME280;51761;42.126;24.752;2023-02-02T06:27:57;99790.94;;;13.48;34.55
65175;BME280;51761;42.126;24.752;2023-02-02T06:30:22;99795.66;;;13.51;33.98
65175;BME280;51761;42.126;24.752;2023-02-02T06:32:48;99773.47;;;13.41;33.93
65175;BME280;51761;42.126;24.752;2023-02-02T06:35:13;99783.38;;;13.29;34.26
65175;BME280;51761;42.126;24.752;2023-02-02T06:37:39;99781.63;;;13.19;33.96
65175;BME280;51761;42.126;24.752;2023-02-02T06:40:07;99802.41;;;13.54;34.32
65175;BME280;51761;42.126;24.752;2023-02-02T06:42:33;99797.25;;;13.52;33.32
65175;BME280;51761;42.126;24.752;2023-02-02T06:44:58;99791.81;;;14.06;32.50
65175;BME280;51761;42.126;24.752;2023-02-02T06:47:24;99775.94;;;14.43;31.71
65175;BME280;51761;42.126;24.752;2023-02-02T06:49:50;99797.22;;;14.57;31.49
65175;BME280;51761;42.126;24.752;2023-02-02T06:52:15;99774.84;;;14.25;31.28
65175;BME280;51761;42.126;24.752;2023-02-02T06:54:41;99786.22;;;14.62;30.91
65175;BME280;51761;42.126;24.752;2023-02-02T06:57:06;99792.66;;;14.63;31.14
65175;BME280;51761;42.126;24.752;2023-02-02T06:59:33;99775.34;;;14.77;30.41
65175;BME280;51761;42.126;24.752;2023-02-02T07:01:58;99791.25;;;15.08;30.57
65175;BME280;51761;42.126;24.752;2023-02-02T07:04:24;99794.03;;;14.42;30.95
65175;BME280;51761;42.126;24.752;2023-02-02T07:06:49;99784.34;;;13.55;32.38
65175;BME280;51761;42.126;24.752;2023-02-02T07:09:15;99804.44;;;13.02;33.68
65175;BME280;51761;42.126;24.752;2023-02-02T07:11:41;99806.47;;;13.17;34.33
65175;BME280;51761;42.126;24.752;2023-02-02T07:14:06;99796.88;;;13.82;32.57
65175;BME280;51761;42.126;24.752;2023-02-02T07:16:32;99815.28;;;13.83;32.46
65175;BME280;51761;42.126;24.752;2023-02-02T07:18:58;99820.91;;;13.00;33.89
65175;BME280;51761;42.126;24.752;2023-02-02T07:21:25;99813.78;;;13.15;34.52
65175;BME280;51761;42.126;24.752;2023-02-02T07:23:52;99810.28;;;13.59;33.06
65175;BME280;51761;42.126;24.752;2023-02-02T07:26:18;99814.09;;;14.28;32.09
65175;BME280;51761;42.126;24.752;2023-02-02T07:28:44;99812.63;;;14.52;31.88
65175;BME280;51761;42.126;24.752;2023-02-02T07:31:22;99817.50;;;14.77;31.55
65175;BME280;51761;42.126;24.752;2023-02-02T07:33:49;99807.09;;;15.02;30.67
65175;BME280;51761;42.126;24.752;2023-02-02T07:36:17;99819.88;;;14.78;31.55
65175;BME280;51761;42.126;24.752;2023-02-02T07:38:45;99808.31;;;15.01;31.67
65175;BME280;51761;42.126;24.752;2023-02-02T07:41:11;99826.97;;;15.36;31.00
65175;BME280;51761;42.126;24.752;2023-02-02T07:43:38;99816.44;;;15.12;30.82
65175;BME280;51761;42.126;24.752;2023-02-02T07:46:05;99812.53;;;15.09;30.77
65175;BME280;51761;42.126;24.752;2023-02-02T07:48:33;99807.31;;;15.08;30.94
65175;BME280;51761;42.126;24.752;2023-02-02T07:50:59;99796.97;;;15.17;30.27
65175;BME280;51761;42.126;24.752;2023-02-02T07:53:25;99799.03;;;15.54;29.93
65175;BME280;51761;42.126;24.752;2023-02-02T07:55:51;99798.59;;;15.56;30.33
65175;BME280;51761;42.126;24.752;2023-02-02T07:58:16;99810.72;;;15.78;32.57
65175;BME280;51761;42.126;24.752;2023-02-02T08:00:41;99823.78;;;14.68;42.29
65175;BME280;51761;42.126;24.752;2023-02-02T08:03:10;99805.91;;;13.74;35.94
65175;BME280;51761;42.126;24.752;2023-02-02T08:05:36;99823.28;;;13.01;35.69
65175;BME280;51761;42.126;24.752;2023-02-02T08:08:02;99804.50;;;12.24;35.56
65175;BME280;51761;42.126;24.752;2023-02-02T08:10:27;99821.13;;;12.12;36.04
65175;BME280;51761;42.126;24.752;2023-02-02T08:12:53;99828.03;;;12.46;35.75
65175;BME280;51761;42.126;24.752;2023-02-02T08:15:18;99782.94;;;13.15;33.94
65175;BME280;51761;42.126;24.752;2023-02-02T08:17:45;99826.66;;;14.08;33.42
65175;BME280;51761;42.126;24.752;2023-02-02T08:20:11;99812.88;;;14.70;31.89
65175;BME280;51761;42.126;24.752;2023-02-02T08:22:38;99816.72;;;15.30;31.05
65175;BME280;51761;42.126;24.752;2023-02-02T08:25:04;99817.72;;;14.41;31.78
65175;BME280;51761;42.126;24.752;2023-02-02T08:27:29;99790.22;;;13.44;33.01
65175;BME280;51761;42.126;24.752;2023-02-02T08:29:55;99813.88;;;12.92;34.33
65175;BME280;51761;42.126;24.752;2023-02-02T08:32:21;99785.50;;;12.70;34.57
65175;BME280;51761;42.126;24.752;2023-02-02T08:34:50;99796.31;;;13.07;34.54
65175;BME280;51761;42.126;24.752;2023-02-02T08:37:18;99800.41;;;14.15;32.25
65175;BME280;51761;42.126;24.752;2023-02-02T08:39:43;99802.88;;;15.35;30.73
65175;BME280;51761;42.126;24.752;2023-02-02T08:42:09;99800.47;;;15.71;31.58
65175;BME280;51761;42.126;24.752;2023-02-02T08:44:34;99794.88;;;16.05;29.20
65175;BME280;51761;42.126;24.752;2023-02-02T08:47:00;99808.13;;;16.51;29.53
65175;BME280;51761;42.126;24.752;2023-02-02T08:49:25;99801.97;;;17.17;28.33
65175;BME280;51761;42.126;24.752;2023-02-02T08:51:51;99798.03;;;17.36;27.73
65175;BME280;51761;42.126;24.752;2023-02-02T08:54:17;99783.41;;;17.37;27.99
65175;BME280;51761;42.126;24.752;2023-02-02T08:56:42;99796.69;;;17.58;27.62
65175;BME280;51761;42.126;24.752;2023-02-02T08:59:08;99797.72;;;18.00;27.06
65175;BME280;51761;42.126;24.752;2023-02-02T09:01:34;99786.41;;;17.91;27.08
65175;BME280;51761;42.126;24.752;2023-02-02T09:04:03;99780.06;;;17.60;27.58
65175;BME280;51761;42.126;24.752;2023-02-02T09:06:39;99797.00;;;18.35;27.94
65175;BME280;51761;42.126;24.752;2023-02-02T09:09:07;99767.44;;;18.54;26.41
65175;BME280;51761;42.126;24.752;2023-02-02T09:11:33;99777.72;;;17.76;27.11
65175;BME280;51761;42.126;24.752;2023-02-02T09:13:59;99752.94;;;17.32;27.22
65175;BME280;51761;42.126;24.752;2023-02-02T09:16:28;99762.22;;;17.81;27.67
65175;BME280;51761;42.126;24.752;2023-02-02T09:18:55;99761.72;;;17.82;27.84
65175;BME280;51761;42.126;24.752;2023-02-02T09:21:20;99753.56;;;17.66;27.54
65175;BME280;51761;42.126;24.752;2023-02-02T09:23:48;99756.13;;;18.18;26.53
65175;BME280;51761;42.126;24.752;2023-02-02T09:26:16;99743.22;;;18.08;27.61
65175;BME280;51761;42.126;24.752;2023-02-02T09:28:45;99748.41;;;18.55;27.82
65175;BME280;51761;42.126;24.752;2023-02-02T09:31:11;99726.22;;;18.80;26.26
65175;BME280;51761;42.126;24.752;2023-02-02T09:33:37;99743.41;;;19.18;26.16
65175;BME280;51761;42.126;24.752;2023-02-02T09:36:25;99710.09;;;19.04;26.70
65175;BME280;51761;42.126;24.752;2023-02-02T09:38:51;99725.94;;;19.20;25.37
65175;BME280;51761;42.126;24.752;2023-02-02T09:49:22;99717.31;;;17.17;28.28
65175;BME280;51761;42.126;24.752;2023-02-02T09:51:55;99715.94;;;17.30;27.72
65175;BME280;51761;42.126;24.752;2023-02-02T09:54:34;99722.31;;;17.22;27.95
65175;BME280;51761;42.126;24.752;2023-02-02T09:57:11;99714.28;;;17.11;27.98
65175;BME280;51761;42.126;24.752;2023-02-02T09:59:40;99711.19;;;17.66;28.14
65175;BME280;51761;42.126;24.752;2023-02-02T10:02:21;99712.13;;;17.72;27.91
65175;BME280;51761;42.126;24.752;2023-02-02T10:04:50;99684.50;;;18.12;27.26
65175;BME280;51761;42.126;24.752;2023-02-02T10:07:33;99689.41;;;18.89;28.40
65175;BME280;51761;42.126;24.752;2023-02-02T10:10:26;99679.56;;;19.17;25.40
65175;BME280;51761;42.126;24.752;2023-02-02T10:13:02;99677.34;;;19.12;26.41
65175;BME280;51761;42.126;24.752;2023-02-02T10:18:09;99649.09;;;19.03;25.02
65175;BME280;51761;42.126;24.752;2023-02-02T10:23:41;99639.41;;;18.86;27.21
65175;BME280;51761;42.126;24.752;2023-02-02T10:37:47;99625.22;;;19.27;26.19
65175;BME280;51761;42.126;24.752;2023-02-02T10:46:13;99601.63;;;19.68;25.93
65175;BME280;51761;42.126;24.752;2023-02-02T10:48:44;99621.91;;;19.90;25.57
65175;BME280;51761;42.126;24.752;2023-02-02T10:51:19;99614.66;;;19.89;26.53
65175;BME280;51761;42.126;24.752;2023-02-02T10:53:50;99603.72;;;19.97;26.60
65175;BME280;51761;42.126;24.752;2023-02-02T10:56:19;99611.69;;;19.69;26.29
65175;BME280;51761;42.126;24.752;2023-02-02T11:01:21;99575.66;;;19.32;24.93
65175;BME280;51761;42.126;24.752;2023-02-02T11:03:47;99582.28;;;19.29;25.96
65175;BME280;51761;42.126;24.752;2023-02-02T11:06:34;99576.34;;;18.62;26.25
65175;BME280;51761;42.126;24.752;2023-02-02T11:09:27;99576.91;;;18.75;27.09
65175;BME280;51761;42.126;24.752;2023-02-02T11:12:00;99572.72;;;19.41;26.42
65175;BME280;51761;42.126;24.752;2023-02-02T11:14:46;99561.59;;;19.90;26.33
65175;BME280;51761;42.126;24.752;2023-02-02T11:17:20;99566.59;;;19.19;25.49
65175;BME280;51761;42.126;24.752;2023-02-02T11:19:47;99559.22;;;18.89;27.20
65175;BME280;51761;42.126;24.752;2023-02-02T11:22:34;99555.75;;;19.41;26.32
65175;BME280;51761;42.126;24.752;2023-02-02T11:25:05;99534.53;;;19.89;26.49
65175;BME280;51761;42.126;24.752;2023-02-02T11:27:42;99537.84;;;20.31;25.88
65175;BME280;51761;42.126;24.752;2023-02-02T11:30:20;99518.19;;;20.76;25.20
65175;BME280;51761;42.126;24.752;2023-02-02T11:32:50;99508.03;;;20.35;24.03
65175;BME280;51761;42.126;24.752;2023-02-02T11:35:20;99517.69;;;20.43;25.32
65175;BME280;51761;42.126;24.752;2023-02-02T11:40:52;99488.72;;;20.54;25.06
65175;BME280;51761;42.126;24.752;2023-02-02T11:43:32;99501.50;;;20.29;23.40
65175;BME280;51761;42.126;24.752;2023-02-02T11:46:03;99489.38;;;20.14;23.39
65175;BME280;51761;42.126;24.752;2023-02-02T11:48:35;99483.00;;;19.76;24.03
65175;BME280;51761;42.126;24.752;2023-02-02T11:51:03;99466.88;;;19.96;24.63
65175;BME280;51761;42.126;24.752;2023-02-02T11:53:35;99466.50;;;19.74;22.81
65175;BME280;51761;42.126;24.752;2023-02-02T11:56:16;99451.03;;;19.18;23.29
65175;BME280;51761;42.126;24.752;2023-02-02T12:03:47;99459.25;;;18.36;24.29
65175;BME280;51761;42.126;24.752;2023-02-02T12:08:43;99476.47;;;17.64;23.85
65175;BME280;51761;42.126;24.752;2023-02-02T12:11:38;99450.75;;;16.73;24.70
65175;BME280;51761;42.126;24.752;2023-02-02T12:16:47;99440.75;;;15.84;25.95
65175;BME280;51761;42.126;24.752;2023-02-02T12:25:02;99460.81;;;17.10;26.92
65175;BME280;51761;42.126;24.752;2023-02-02T12:27:53;99452.81;;;17.35;25.95
65175;BME280;51761;42.126;24.752;2023-02-02T12:30:33;99448.44;;;17.16;25.37
65175;BME280;51761;42.126;24.752;2023-02-02T12:35:49;99439.28;;;16.58;25.47
65175;BME280;51761;42.126;24.752;2023-02-02T12:41:18;99457.38;;;15.91;27.79
65175;BME280;51761;42.126;24.752;2023-02-02T12:44:00;99449.84;;;15.58;28.64
65175;BME280;51761;42.126;24.752;2023-02-02T12:50:18;99449.78;;;15.27;27.86
65175;BME280;51761;42.126;24.752;2023-02-02T12:55:42;99443.78;;;15.16;27.60
65175;BME280;51761;42.126;24.752;2023-02-02T12:58:15;99446.97;;;15.06;28.38
65175;BME280;51761;42.126;24.752;2023-02-02T13:06:18;99413.75;;;15.13;27.90
65175;BME280;51761;42.126;24.752;2023-02-02T13:09:09;99431.34;;;15.05;28.48
65175;BME280;51761;42.126;24.752;2023-02-02T13:14:18;99423.66;;;14.84;29.20
65175;BME280;51761;42.126;24.752;2023-02-02T13:16:49;99402.72;;;14.63;28.96
65175;BME280;51761;42.126;24.752;2023-02-02T13:19:30;99410.72;;;14.65;29.59
65175;BME280;51761;42.126;24.752;2023-02-02T13:22:01;99395.72;;;14.46;28.49
65175;BME280;51761;42.126;24.752;2023-02-02T13:24:31;99422.56;;;14.47;28.27
65175;BME280;51761;42.126;24.752;2023-02-02T13:27:03;99411.53;;;14.53;28.28
65175;BME280;51761;42.126;24.752;2023-02-02T13:29:59;99413.47;;;14.43;28.53
65175;BME280;51761;42.126;24.752;2023-02-02T13:32:32;99411.53;;;14.53;28.98
65175;BME280;51761;42.126;24.752;2023-02-02T13:46:04;99412.38;;;15.39;27.71
65175;BME280;51761;42.126;24.752;2023-02-02T13:54:04;99373.84;;;15.06;28.31
65175;BME280;51761;42.126;24.752;2023-02-02T13:59:44;99406.34;;;14.85;28.16
65175;BME280;51761;42.126;24.752;2023-02-02T14:04:51;99406.84;;;14.37;27.32
65175;BME280;51761;42.126;24.752;2023-02-02T14:07:25;99439.16;;;14.21;28.17
65175;BME280;51761;42.126;24.752;2023-02-02T14:09:52;99443.63;;;13.81;33.79
65175;BME280;51761;42.126;24.752;2023-02-02T14:12:29;99436.47;;;13.26;36.72
65175;BME280;51761;42.126;24.752;2023-02-02T14:14:56;99450.09;;;12.83;38.92
65175;BME280;51761;42.126;24.752;2023-02-02T14:19:52;99412.72;;;12.30;41.44
65175;BME280;51761;42.126;24.752;2023-02-02T14:24:48;99409.41;;;12.03;42.77
65175;BME280;51761;42.126;24.752;2023-02-02T14:43:16;99447.28;;;11.75;43.05
65175;BME280;51761;42.126;24.752;2023-02-02T14:49:09;99446.75;;;11.80;42.27
65175;BME280;51761;42.126;24.752;2023-02-02T14:51:44;99462.31;;;11.81;42.40
65175;BME280;51761;42.126;24.752;2023-02-02T14:54:19;99433.88;;;11.67;42.67
65175;BME280;51761;42.126;24.752;2023-02-02T14:56:55;99450.94;;;11.72;42.88
65175;BME280;51761;42.126;24.752;2023-02-02T14:59:35;99448.31;;;11.65;43.26
65175;BME280;51761;42.126;24.752;2023-02-02T15:04:39;99450.47;;;11.58;43.80
65175;BME280;51761;42.126;24.752;2023-02-02T15:09:49;99437.84;;;11.69;44.01
65175;BME280;51761;42.126;24.752;2023-02-02T15:12:23;99430.41;;;11.43;44.26
65175;BME280;51761;42.126;24.752;2023-02-02T15:20:23;99453.31;;;11.54;43.40
65175;BME280;51761;42.126;24.752;2023-02-02T15:30:55;99466.16;;;11.32;44.58
65175;BME280;51761;42.126;24.752;2023-02-02T15:33:28;99475.03;;;11.11;45.41
65175;BME280;51761;42.126;24.752;2023-02-02T15:35:57;99491.28;;;11.16;45.50
65175;BME280;51761;42.126;24.752;2023-02-02T15:38:31;99471.84;;;10.90;46.22
65175;BME280;51761;42.126;24.752;2023-02-02T15:41:04;99484.63;;;11.10;45.79
65175;BME280;51761;42.126;24.752;2023-02-02T15:43:30;99496.16;;;11.12;45.88